createdAt,value
2019-01-17T00:00:24.631Z,6.30
2019-01-17T00:01:24.698Z,6.27
2019-01-17T00:02:24.660Z,6.36
2019-01-17T00:03:24.675Z,6.27
2019-01-17T00:04:24.693Z,6.35
2019-01-17T00:05:24.708Z,6.30
2019-01-17T00:06:24.720Z,6.30
2019-01-17T00:07:24.739Z,6.35
2019-01-17T00:08:24.753Z,6.26
2019-01-17T00:09:24.768Z,6.30
2019-01-17T00:10:24.787Z,6.28
2019-01-17T00:11:24.799Z,6.20
2019-01-17T00:12:24.813Z,6.26
2019-01-17T00:13:24.829Z,6.28
2019-01-17T00:14:24.842Z,6.33
2019-01-17T00:15:24.858Z,6.27
2019-01-17T00:16:24.875Z,6.33
2019-01-17T00:17:24.887Z,6.33
2019-01-17T00:18:24.903Z,6.27
2019-01-17T00:19:24.916Z,6.31
2019-01-17T00:20:24.932Z,6.27
2019-01-17T00:21:24.947Z,6.28
2019-01-17T00:22:24.963Z,6.30
2019-01-17T00:23:24.985Z,6.27
2019-01-17T00:24:24.994Z,6.26
2019-01-17T00:25:25.007Z,6.22
2019-01-17T00:26:25.024Z,6.16
2019-01-17T00:27:25.039Z,6.28
2019-01-17T00:28:25.054Z,6.24
2019-01-17T00:29:25.067Z,6.27
2019-01-17T00:30:25.081Z,6.28
2019-01-17T00:31:25.100Z,6.26
2019-01-17T00:32:25.112Z,6.19
2019-01-17T00:33:25.132Z,6.24
2019-01-17T00:34:25.143Z,6.28
2019-01-17T00:35:25.160Z,6.17
2019-01-17T00:36:25.175Z,6.28
2019-01-17T00:37:25.187Z,6.16
2019-01-17T00:38:25.202Z,6.20
2019-01-17T00:39:25.221Z,6.20
2019-01-17T00:40:25.237Z,6.24
2019-01-17T00:41:25.248Z,6.19
2019-01-17T00:42:25.261Z,6.09
2019-01-17T00:43:25.278Z,6.19
2019-01-17T00:44:25.292Z,6.28
2019-01-17T00:45:25.308Z,6.24
2019-01-17T00:46:25.323Z,6.19
2019-01-17T00:47:25.341Z,6.24
2019-01-17T00:48:25.352Z,6.22
2019-01-17T00:49:25.371Z,6.19
2019-01-17T00:50:25.387Z,6.28
2019-01-17T00:51:25.402Z,6.20
2019-01-17T00:52:25.413Z,6.17
2019-01-17T00:53:25.439Z,6.11
2019-01-17T00:54:25.446Z,6.20
2019-01-17T00:55:25.459Z,6.24
2019-01-17T00:56:25.474Z,6.17
2019-01-17T00:57:25.487Z,6.26
2019-01-17T00:58:25.505Z,6.27
2019-01-17T00:59:25.518Z,6.19
2019-01-17T01:00:25.533Z,6.22
2019-01-17T01:01:25.547Z,6.24
2019-01-17T01:02:25.564Z,6.24
2019-01-17T01:03:25.580Z,6.27
2019-01-17T01:04:25.595Z,6.22
2019-01-17T01:05:25.610Z,6.16
2019-01-17T01:06:25.623Z,6.20
2019-01-17T01:07:25.636Z,6.20
2019-01-17T01:08:25.654Z,6.20
2019-01-17T01:09:25.667Z,6.17
2019-01-17T01:10:25.684Z,6.24
2019-01-17T01:11:25.699Z,6.20
2019-01-17T01:12:25.712Z,6.19
2019-01-17T01:13:25.727Z,6.20
2019-01-17T01:14:25.741Z,6.19
2019-01-17T01:15:25.757Z,6.28
2019-01-17T01:16:25.775Z,6.19
2019-01-17T01:17:25.787Z,6.20
2019-01-17T01:18:25.801Z,6.20
2019-01-17T01:19:25.821Z,6.20
2019-01-17T01:20:25.832Z,6.24
2019-01-17T01:21:25.848Z,6.16
2019-01-17T01:22:25.861Z,6.20
2019-01-17T01:23:25.876Z,6.27
2019-01-17T01:24:25.892Z,6.16
2019-01-17T01:25:25.909Z,6.14
2019-01-17T01:26:25.923Z,6.12
2019-01-17T01:27:25.936Z,6.22
2019-01-17T01:28:25.951Z,6.22
2019-01-17T01:29:25.973Z,6.22
2019-01-17T01:30:25.981Z,6.22
2019-01-17T01:31:26.000Z,6.20
2019-01-17T01:32:26.016Z,6.20
2019-01-17T01:33:26.031Z,6.24
2019-01-17T01:34:26.046Z,6.20
2019-01-17T01:35:26.058Z,6.14
2019-01-17T01:36:26.074Z,6.14
2019-01-17T01:37:26.089Z,6.17
2019-01-17T01:38:26.103Z,6.22
2019-01-17T01:39:26.120Z,6.27
2019-01-17T01:40:26.133Z,6.16
2019-01-17T01:41:26.146Z,6.26
2019-01-17T01:42:26.163Z,6.19
2019-01-17T01:43:26.179Z,6.17
2019-01-17T01:44:26.192Z,6.12
2019-01-17T01:45:26.210Z,6.27
2019-01-17T01:46:26.221Z,6.20
2019-01-17T01:47:26.239Z,6.28
2019-01-17T01:48:26.252Z,6.24
2019-01-17T01:49:26.266Z,6.28
2019-01-17T01:50:26.283Z,6.27
2019-01-17T01:51:26.296Z,6.20
2019-01-17T01:52:26.312Z,6.24
2019-01-17T01:53:26.329Z,6.24
2019-01-17T01:54:26.344Z,6.20
2019-01-17T01:55:26.360Z,6.20
2019-01-17T01:56:26.375Z,6.22
2019-01-17T01:57:26.387Z,6.20
2019-01-17T01:58:26.401Z,6.20
2019-01-17T01:59:26.416Z,6.27
2019-01-17T02:00:26.434Z,6.27
2019-01-17T02:01:26.452Z,6.31
2019-01-17T02:02:26.465Z,6.26
2019-01-17T02:03:26.480Z,6.24
2019-01-17T02:04:26.493Z,6.28
2019-01-17T02:05:26.510Z,6.26
2019-01-17T02:06:26.521Z,6.20
2019-01-17T02:07:26.541Z,6.20
2019-01-17T02:08:26.553Z,6.19
2019-01-17T02:09:26.568Z,6.26
2019-01-17T02:10:26.581Z,6.24
2019-01-17T02:11:26.602Z,6.12
2019-01-17T02:12:26.612Z,6.17
2019-01-17T02:13:26.630Z,6.24
2019-01-17T02:14:26.644Z,6.30
2019-01-17T02:15:26.659Z,6.35
2019-01-17T02:16:26.674Z,6.28
2019-01-17T02:17:26.689Z,6.16
2019-01-17T02:18:26.701Z,6.30
2019-01-17T02:19:26.719Z,6.22
2019-01-17T02:20:26.734Z,6.17
2019-01-17T02:21:26.750Z,6.12
2019-01-17T02:22:26.763Z,6.09
2019-01-17T02:23:26.778Z,6.24
2019-01-17T02:24:28.609Z,6.09
2019-01-17T02:25:26.807Z,6.05
2019-01-17T02:26:26.822Z,6.11
2019-01-17T02:27:26.937Z,6.08
2019-01-17T02:28:26.852Z,6.02
2019-01-17T02:29:26.868Z,5.94
2019-01-17T02:30:26.885Z,6.01
2019-01-17T02:31:26.896Z,5.98
2019-01-17T02:32:26.911Z,5.91
2019-01-17T02:33:26.930Z,5.90
2019-01-17T02:34:26.942Z,5.90
2019-01-17T02:35:26.957Z,5.89
2019-01-17T02:36:26.971Z,5.91
2019-01-17T02:37:26.998Z,5.87
2019-01-17T02:38:27.005Z,5.89
2019-01-17T02:39:27.016Z,5.86
2019-01-17T02:40:27.030Z,5.98
2019-01-17T02:41:27.048Z,5.90
2019-01-17T02:42:27.061Z,5.86
2019-01-17T02:43:27.076Z,5.86
2019-01-17T02:44:27.094Z,5.84
2019-01-17T02:45:27.109Z,5.73
2019-01-17T02:46:27.122Z,5.79
2019-01-17T02:47:27.136Z,5.76
2019-01-17T02:48:27.149Z,5.80
2019-01-17T02:49:27.168Z,5.84
2019-01-17T02:50:27.178Z,5.75
2019-01-17T02:51:27.196Z,5.71
2019-01-17T02:52:27.235Z,5.79
2019-01-17T02:53:27.227Z,5.73
2019-01-17T02:54:27.237Z,5.65
2019-01-17T02:55:27.253Z,5.64
2019-01-17T02:56:27.270Z,5.66
2019-01-17T02:57:27.285Z,5.66
2019-01-17T02:58:27.296Z,5.71
2019-01-17T02:59:27.315Z,5.69
2019-01-17T03:00:27.331Z,5.72
2019-01-17T03:01:27.346Z,5.68
2019-01-17T03:02:27.356Z,5.68
2019-01-17T03:03:27.371Z,5.75
2019-01-17T03:04:27.387Z,5.76
2019-01-17T03:05:27.404Z,5.82
2019-01-17T03:06:27.417Z,5.73
2019-01-17T03:07:27.431Z,5.73
2019-01-17T03:08:27.447Z,5.83
2019-01-17T03:09:27.463Z,5.79
2019-01-17T03:10:27.476Z,5.80
2019-01-17T03:11:27.493Z,5.72
2019-01-17T03:12:27.506Z,5.79
2019-01-17T03:13:27.523Z,5.79
2019-01-17T03:14:27.538Z,5.76
2019-01-17T03:15:27.554Z,5.84
2019-01-17T03:16:27.566Z,5.83
2019-01-17T03:17:27.584Z,5.73
2019-01-17T03:18:27.595Z,5.80
2019-01-17T03:19:27.666Z,5.83
2019-01-17T03:20:27.629Z,5.80
2019-01-17T03:21:27.655Z,5.84
2019-01-17T03:22:27.654Z,5.83
2019-01-17T03:23:27.673Z,5.72
2019-01-17T03:24:27.688Z,5.72
2019-01-17T03:25:27.704Z,5.73
2019-01-17T03:26:27.714Z,5.76
2019-01-17T03:27:27.733Z,5.69
2019-01-17T03:28:27.745Z,5.73
2019-01-17T03:29:27.760Z,5.68
2019-01-17T03:30:27.777Z,5.54
2019-01-17T03:31:27.794Z,5.73
2019-01-17T03:32:27.895Z,5.56
2019-01-17T03:33:27.821Z,5.69
2019-01-17T03:34:27.833Z,5.64
2019-01-17T03:35:27.860Z,5.61
2019-01-17T03:36:27.872Z,5.72
2019-01-17T03:37:27.882Z,5.62
2019-01-17T03:38:27.895Z,5.57
2019-01-17T03:39:27.913Z,5.79
2019-01-17T03:40:27.932Z,5.69
2019-01-17T03:41:27.941Z,5.64
2019-01-17T03:42:27.954Z,5.71
2019-01-17T03:43:27.967Z,5.65
2019-01-17T03:44:27.984Z,5.75
2019-01-17T03:45:27.997Z,5.69
2019-01-17T03:46:28.015Z,5.69
2019-01-17T03:47:28.089Z,5.64
2019-01-17T03:48:28.043Z,5.73
2019-01-17T03:49:28.059Z,5.71
2019-01-17T03:50:28.074Z,5.54
2019-01-17T03:51:28.086Z,5.56
2019-01-17T03:52:28.112Z,5.56
2019-01-17T03:53:28.116Z,5.53
2019-01-17T03:54:28.132Z,5.68
2019-01-17T03:55:28.145Z,5.62
2019-01-17T03:56:28.160Z,5.64
2019-01-17T03:57:28.178Z,5.57
2019-01-17T03:58:28.190Z,5.65
2019-01-17T03:59:28.204Z,5.65
2019-01-17T04:00:28.219Z,5.72
2019-01-17T04:01:28.234Z,5.64
2019-01-17T04:02:28.256Z,5.56
2019-01-17T04:03:28.263Z,5.68
2019-01-17T04:04:28.279Z,5.61
2019-01-17T04:05:28.305Z,5.72
2019-01-17T04:06:28.311Z,5.68
2019-01-17T04:07:28.324Z,5.71
2019-01-17T04:08:28.339Z,5.53
2019-01-17T04:09:28.355Z,5.65
2019-01-17T04:10:28.367Z,5.64
2019-01-17T04:11:28.384Z,5.72
2019-01-17T04:12:28.397Z,5.62
2019-01-17T04:13:28.414Z,5.62
2019-01-17T04:14:28.429Z,5.65
2019-01-17T04:15:28.441Z,5.64
2019-01-17T04:16:28.456Z,5.75
2019-01-17T04:17:28.474Z,5.66
2019-01-17T04:18:28.488Z,5.75
2019-01-17T04:19:28.503Z,5.66
2019-01-17T04:20:28.516Z,5.75
2019-01-17T04:21:28.531Z,5.66
2019-01-17T04:22:28.547Z,5.68
2019-01-17T04:23:28.559Z,5.61
2019-01-17T04:24:28.578Z,5.71
2019-01-17T04:25:28.590Z,5.68
2019-01-17T04:26:28.606Z,5.69
2019-01-17T04:27:28.619Z,5.65
2019-01-17T04:28:28.637Z,5.71
2019-01-17T04:29:28.652Z,5.65
2019-01-17T04:30:28.664Z,5.68
2019-01-17T04:31:28.681Z,5.80
2019-01-17T04:32:28.695Z,5.72
2019-01-17T04:33:28.710Z,5.80
2019-01-17T04:34:28.726Z,5.76
2019-01-17T04:35:28.738Z,5.82
2019-01-17T04:36:28.755Z,5.76
2019-01-17T04:37:28.767Z,5.69
2019-01-17T04:38:28.782Z,5.72
2019-01-17T04:39:28.799Z,5.80
2019-01-17T04:40:28.812Z,5.76
2019-01-17T04:41:28.830Z,5.56
2019-01-17T04:42:28.842Z,5.65
2019-01-17T04:43:28.864Z,5.68
2019-01-17T04:44:28.874Z,5.65
2019-01-17T04:45:28.888Z,5.69
2019-01-17T04:46:28.902Z,5.68
2019-01-17T04:47:28.916Z,5.64
2019-01-17T04:48:28.935Z,5.65
2019-01-17T04:49:28.946Z,5.59
2019-01-17T04:50:28.960Z,5.65
2019-01-17T04:51:28.978Z,5.65
2019-01-17T04:52:28.993Z,5.71
2019-01-17T04:53:29.005Z,5.66
2019-01-17T04:54:29.019Z,5.64
2019-01-17T04:55:29.034Z,5.68
2019-01-17T04:56:29.053Z,5.71
2019-01-17T04:57:29.066Z,5.68
2019-01-17T04:58:29.078Z,5.61
2019-01-17T04:59:29.098Z,5.66
2019-01-17T05:00:29.115Z,5.73
2019-01-17T05:01:29.124Z,5.62
2019-01-17T05:02:29.138Z,5.75
2019-01-17T05:03:29.153Z,5.71
2019-01-17T05:04:29.171Z,5.86
2019-01-17T05:05:29.185Z,5.84
2019-01-17T05:06:29.197Z,5.80
2019-01-17T05:07:29.216Z,5.82
2019-01-17T05:08:29.230Z,5.84
2019-01-17T05:09:29.245Z,5.84
2019-01-17T05:10:29.261Z,5.86
2019-01-17T05:11:29.273Z,5.94
2019-01-17T05:12:29.287Z,5.89
2019-01-17T05:13:29.304Z,5.87
2019-01-17T05:14:29.320Z,5.86
2019-01-17T05:15:29.742Z,5.98
2019-01-17T05:16:29.357Z,5.94
2019-01-17T05:17:29.365Z,6.01
2019-01-17T05:18:29.376Z,5.90
2019-01-17T05:19:29.397Z,5.87
2019-01-17T05:20:29.407Z,5.91
2019-01-17T05:21:29.422Z,5.91
2019-01-17T05:22:29.446Z,6.02
2019-01-17T05:23:29.451Z,5.97
2019-01-17T05:24:29.466Z,6.02
2019-01-17T05:25:29.483Z,6.09
2019-01-17T05:26:29.498Z,6.12
2019-01-17T05:27:29.517Z,6.11
2019-01-17T05:28:29.530Z,6.08
2019-01-17T05:29:29.541Z,6.09
2019-01-17T05:30:29.556Z,6.05
2019-01-17T05:31:29.571Z,6.08
2019-01-17T05:32:36.481Z,6.08
2019-01-17T05:33:29.605Z,6.12
2019-01-17T05:34:29.616Z,6.04
2019-01-17T05:35:29.631Z,6.07
2019-01-17T05:36:29.649Z,6.12
2019-01-17T05:37:29.663Z,6.16
2019-01-17T05:38:29.679Z,6.16
2019-01-17T05:39:29.691Z,6.11
2019-01-17T05:40:29.708Z,6.11
2019-01-17T05:41:29.749Z,6.04
2019-01-17T05:42:29.738Z,6.08
2019-01-17T05:43:29.751Z,6.12
2019-01-17T05:44:29.766Z,6.07
2019-01-17T05:45:29.782Z,6.02
2019-01-17T05:46:29.797Z,6.08
2019-01-17T05:47:29.814Z,6.08
2019-01-17T05:48:29.831Z,6.04
2019-01-17T05:49:29.845Z,6.12
2019-01-17T05:50:29.857Z,6.12
2019-01-17T05:51:29.872Z,6.09
2019-01-17T05:52:29.889Z,6.07
2019-01-17T05:53:29.905Z,6.08
2019-01-17T05:54:29.917Z,6.05
2019-01-17T05:55:29.935Z,6.12
2019-01-17T05:56:29.949Z,6.08
2019-01-17T05:57:29.966Z,6.08
2019-01-17T05:58:29.977Z,6.05
2019-01-17T05:59:29.993Z,6.12
2019-01-17T06:00:30.010Z,6.14
2019-01-17T06:01:30.023Z,6.16
2019-01-17T06:02:30.039Z,6.24
2019-01-17T06:03:30.057Z,6.12
2019-01-17T06:04:30.068Z,6.12
2019-01-17T06:05:30.086Z,6.28
2019-01-17T06:06:33.227Z,6.22
2019-01-17T06:07:30.113Z,6.17
2019-01-17T06:08:30.131Z,6.22
2019-01-17T06:09:30.143Z,6.19
2019-01-17T06:10:30.162Z,6.19
2019-01-17T06:11:30.173Z,6.24
2019-01-17T06:12:30.190Z,6.24
2019-01-17T06:13:30.204Z,6.26
2019-01-17T06:14:30.219Z,6.20
2019-01-17T06:15:30.234Z,6.20
2019-01-17T06:16:30.248Z,6.20
2019-01-17T06:17:30.266Z,6.17
2019-01-17T06:18:30.331Z,6.24
2019-01-17T06:19:30.293Z,6.27
2019-01-17T06:20:30.308Z,6.24
2019-01-17T06:21:30.325Z,6.20
2019-01-17T06:22:30.340Z,6.24
2019-01-17T06:23:30.355Z,6.24
2019-01-17T06:24:30.371Z,6.19
2019-01-17T06:25:30.386Z,6.24
2019-01-17T06:26:30.399Z,6.27
2019-01-17T06:27:30.413Z,6.30
2019-01-17T06:28:30.431Z,6.31
2019-01-17T06:29:30.447Z,6.28
2019-01-17T06:30:30.464Z,6.22
2019-01-17T06:31:30.474Z,6.16
2019-01-17T06:32:30.492Z,6.28
2019-01-17T06:33:30.507Z,6.28
2019-01-17T06:34:30.523Z,6.19
2019-01-17T06:35:30.537Z,6.24
2019-01-17T06:36:30.552Z,6.26
2019-01-17T06:37:30.568Z,6.30
2019-01-17T06:38:30.579Z,6.26
2019-01-17T06:39:30.598Z,6.20
2019-01-17T06:40:30.612Z,6.17
2019-01-17T06:41:30.626Z,6.35
2019-01-17T06:42:30.641Z,6.33
2019-01-17T06:43:30.659Z,6.31
2019-01-17T06:44:30.671Z,6.17
2019-01-17T06:45:30.687Z,6.30
2019-01-17T06:46:30.700Z,6.28
2019-01-17T06:47:30.716Z,6.22
2019-01-17T06:48:30.731Z,6.17
2019-01-17T06:49:30.750Z,6.08
2019-01-17T06:50:30.761Z,6.20
2019-01-17T06:51:30.776Z,6.14
2019-01-17T06:52:30.792Z,6.09
2019-01-17T06:53:30.809Z,6.12
2019-01-17T06:54:30.825Z,6.09
2019-01-17T06:55:34.406Z,6.07
2019-01-17T06:56:30.855Z,6.12
2019-01-17T06:57:30.868Z,6.08
2019-01-17T06:58:30.885Z,6.04
2019-01-17T06:59:30.900Z,6.07
2019-01-17T07:00:30.916Z,6.05
2019-01-17T07:01:30.929Z,6.12
2019-01-17T07:02:30.942Z,6.08
2019-01-17T07:03:30.963Z,6.14
2019-01-17T07:04:30.973Z,6.11
2019-01-17T07:05:30.991Z,6.07
2019-01-17T07:06:31.006Z,6.11
2019-01-17T07:07:31.020Z,6.07
2019-01-17T07:08:31.033Z,6.05
2019-01-17T07:09:31.050Z,6.05
2019-01-17T07:10:31.065Z,6.08
2019-01-17T07:11:31.081Z,6.08
2019-01-17T07:12:31.094Z,6.09
2019-01-17T07:13:31.110Z,6.11
2019-01-17T07:14:31.125Z,6.20
2019-01-17T07:15:31.141Z,6.14
2019-01-17T07:16:31.153Z,6.11
2019-01-17T07:17:31.168Z,6.05
2019-01-17T07:18:31.186Z,6.08
2019-01-17T07:19:31.198Z,6.05
2019-01-17T07:20:31.215Z,6.05
2019-01-17T07:21:31.230Z,6.02
2019-01-17T07:22:31.244Z,6.09
2019-01-17T07:23:31.260Z,6.19
2019-01-17T07:24:31.275Z,6.11
2019-01-17T07:25:31.288Z,6.09
2019-01-17T07:26:31.302Z,6.05
2019-01-17T07:27:31.317Z,6.12
2019-01-17T07:28:31.335Z,6.11
2019-01-17T07:29:31.351Z,6.14
2019-01-17T07:30:31.362Z,6.17
2019-01-17T07:31:31.380Z,6.08
2019-01-17T07:32:31.392Z,6.04
2019-01-17T07:33:31.410Z,6.08
2019-01-17T07:34:31.421Z,6.08
2019-01-17T07:35:31.439Z,6.08
2019-01-17T07:36:31.454Z,6.09
2019-01-17T07:37:31.467Z,6.05
2019-01-17T07:38:31.481Z,6.05
2019-01-17T07:39:31.500Z,6.12
2019-01-17T07:40:31.514Z,6.04
2019-01-17T07:41:31.529Z,6.09
2019-01-17T07:42:31.541Z,6.02
2019-01-17T07:43:31.557Z,6.05
2019-01-17T07:44:31.572Z,6.14
2019-01-17T07:45:31.792Z,6.07
2019-01-17T07:46:31.603Z,6.07
2019-01-17T07:47:31.617Z,6.14
2019-01-17T07:48:31.634Z,6.07
2019-01-17T07:49:31.647Z,6.01
2019-01-17T07:50:31.661Z,6.04
2019-01-17T07:51:31.676Z,5.99
2019-01-17T07:52:31.695Z,5.97
2019-01-17T07:53:31.709Z,6.04
2019-01-17T07:54:31.928Z,6.01
2019-01-17T07:55:31.739Z,6.01
2019-01-17T07:56:31.751Z,6.11
2019-01-17T07:57:31.767Z,6.05
2019-01-17T07:58:31.783Z,6.04
2019-01-17T07:59:31.799Z,6.01
2019-01-17T08:00:31.814Z,6.12
2019-01-17T08:01:31.827Z,6.04
2019-01-17T08:02:31.841Z,6.07
2019-01-17T08:03:31.856Z,6.11
2019-01-17T08:04:31.871Z,6.09
2019-01-17T08:05:31.887Z,6.11
2019-01-17T08:06:31.952Z,6.17
2019-01-17T08:07:31.922Z,6.19
2019-01-17T08:08:31.934Z,6.26
2019-01-17T08:09:31.977Z,6.20
2019-01-17T08:10:31.962Z,6.20
2019-01-17T08:11:31.979Z,6.20
2019-01-17T08:12:31.993Z,6.30
2019-01-17T08:13:32.009Z,6.30
2019-01-17T08:14:32.020Z,6.28
2019-01-17T08:15:32.039Z,6.20
2019-01-17T08:16:32.051Z,6.33
2019-01-17T08:17:32.069Z,6.28
2019-01-17T08:18:32.084Z,6.38
2019-01-17T08:19:32.099Z,6.42
2019-01-17T08:20:32.111Z,6.30
2019-01-17T08:21:32.129Z,6.39
2019-01-17T08:22:32.142Z,6.39
2019-01-17T08:23:34.724Z,6.33
2019-01-17T08:24:32.172Z,6.48
2019-01-17T08:25:32.187Z,6.38
2019-01-17T08:26:32.204Z,6.45
2019-01-17T08:27:32.217Z,6.51
2019-01-17T08:28:32.232Z,6.49
2019-01-17T08:29:32.250Z,6.49
2019-01-17T08:30:32.262Z,6.45
2019-01-17T08:31:32.281Z,6.49
2019-01-17T08:32:32.292Z,6.38
2019-01-17T08:33:32.308Z,6.49
2019-01-17T08:34:32.326Z,6.44
2019-01-17T08:35:32.340Z,6.45
2019-01-17T08:36:32.354Z,6.49
2019-01-17T08:37:32.369Z,6.49
2019-01-17T08:38:32.386Z,6.48
2019-01-17T08:39:32.402Z,6.44
2019-01-17T08:40:32.415Z,6.51
2019-01-17T08:41:32.431Z,6.52
2019-01-17T08:42:33.680Z,6.44
2019-01-17T08:43:32.464Z,6.41
2019-01-17T08:44:32.478Z,6.52
2019-01-17T08:45:32.503Z,6.46
2019-01-17T08:46:32.509Z,6.42
2019-01-17T08:47:32.525Z,6.49
2019-01-17T08:48:32.542Z,6.44
2019-01-17T08:49:32.553Z,6.46
2019-01-17T08:50:32.571Z,6.44
2019-01-17T08:51:32.583Z,6.42
2019-01-17T08:52:32.599Z,6.41
2019-01-17T08:53:32.614Z,6.31
2019-01-17T08:54:32.631Z,6.41
2019-01-17T08:55:32.645Z,6.26
2019-01-17T08:56:32.662Z,6.27
2019-01-17T08:57:32.676Z,6.27
2019-01-17T08:58:32.692Z,6.33
2019-01-17T08:59:32.706Z,6.33
2019-01-17T09:00:33.072Z,6.31
2019-01-17T09:01:32.740Z,6.35
2019-01-17T09:02:32.754Z,6.26
2019-01-17T09:03:32.768Z,6.41
2019-01-17T09:04:32.782Z,6.36
2019-01-17T09:05:32.798Z,6.44
2019-01-17T09:06:32.815Z,6.39
2019-01-17T09:07:32.828Z,6.41
2019-01-17T09:08:32.846Z,6.30
2019-01-17T09:09:32.859Z,6.45
2019-01-17T09:10:32.873Z,6.28
2019-01-17T09:11:32.889Z,6.38
2019-01-17T09:12:32.905Z,6.41
2019-01-17T09:13:32.925Z,6.33
2019-01-17T09:14:32.934Z,6.39
2019-01-17T09:15:32.951Z,6.45
2019-01-17T09:16:32.968Z,6.44
2019-01-17T09:17:32.981Z,6.48
2019-01-17T09:18:33.000Z,6.49
2019-01-17T09:19:33.013Z,6.46
2019-01-17T09:20:33.026Z,6.51
2019-01-17T09:21:33.144Z,6.54
2019-01-17T09:22:33.056Z,6.57
2019-01-17T09:23:33.074Z,6.57
2019-01-17T09:24:33.088Z,6.59
2019-01-17T09:25:33.104Z,6.63
2019-01-17T09:26:33.121Z,6.70
2019-01-17T09:27:33.133Z,6.74
2019-01-17T09:28:33.149Z,6.66
2019-01-17T09:29:33.165Z,6.74
2019-01-17T09:30:33.531Z,6.74
2019-01-17T09:31:33.196Z,6.79
2019-01-17T09:32:33.212Z,6.78
2019-01-17T09:33:33.228Z,6.77
2019-01-17T09:34:33.241Z,6.77
2019-01-17T09:35:33.258Z,6.84
2019-01-17T09:36:33.275Z,6.75
2019-01-17T09:37:33.287Z,6.82
2019-01-17T09:38:33.305Z,6.81
2019-01-17T09:39:33.427Z,6.75
2019-01-17T09:40:33.358Z,6.85
2019-01-17T09:41:33.350Z,6.88
2019-01-17T09:42:33.365Z,6.89
2019-01-17T09:43:33.381Z,7.02
2019-01-17T09:44:33.396Z,7.02
2019-01-17T09:45:33.414Z,6.95
2019-01-17T09:46:33.427Z,6.88
2019-01-17T09:47:33.446Z,6.88
2019-01-17T09:48:33.459Z,6.97
2019-01-17T09:49:33.477Z,7.02
2019-01-17T09:50:33.491Z,7.02
2019-01-17T09:51:33.509Z,6.92
2019-01-17T09:52:33.521Z,7.06
2019-01-17T09:53:33.538Z,7.13
2019-01-17T09:54:33.552Z,7.02
2019-01-17T09:55:33.568Z,7.20
2019-01-17T09:56:33.587Z,7.06
2019-01-17T09:57:33.603Z,7.00
2019-01-17T09:58:33.615Z,7.15
2019-01-17T09:59:33.631Z,7.21
2019-01-17T10:00:33.647Z,7.20
2019-01-17T10:01:33.667Z,7.28
2019-01-17T10:02:33.678Z,7.29
2019-01-17T10:03:33.696Z,7.21
2019-01-17T10:04:33.710Z,7.23
2019-01-17T10:05:33.726Z,7.29
2019-01-17T10:06:33.742Z,7.25
2019-01-17T10:07:33.760Z,7.20
2019-01-17T10:08:33.777Z,7.23
2019-01-17T10:09:33.804Z,7.20
2019-01-17T10:10:33.805Z,7.06
2019-01-17T10:11:33.823Z,7.14
2019-01-17T10:12:33.841Z,7.24
2019-01-17T10:13:33.863Z,7.17
2019-01-17T10:14:33.872Z,7.28
2019-01-17T10:15:33.889Z,7.29
2019-01-17T10:16:33.903Z,7.31
2019-01-17T10:17:33.917Z,7.29
2019-01-17T10:18:33.935Z,7.17
2019-01-17T10:19:34.012Z,7.13
2019-01-17T10:20:33.969Z,7.24
2019-01-17T10:21:33.986Z,7.24
2019-01-17T10:22:33.996Z,7.24
2019-01-17T10:23:34.014Z,7.23
2019-01-17T10:24:34.031Z,7.21
2019-01-17T10:25:34.047Z,7.24
2019-01-17T10:26:34.065Z,7.29
2019-01-17T10:27:34.077Z,7.15
2019-01-17T10:28:34.093Z,7.15
2019-01-17T10:29:34.108Z,7.20
2019-01-17T10:30:34.123Z,7.21
2019-01-17T10:31:34.144Z,7.25
2019-01-17T10:32:34.157Z,7.32
2019-01-17T10:33:34.171Z,7.17
2019-01-17T10:34:34.186Z,7.20
2019-01-17T10:35:34.204Z,7.23
2019-01-17T10:36:34.223Z,7.14
2019-01-17T10:37:34.238Z,7.21
2019-01-17T10:38:34.253Z,7.20
2019-01-17T10:39:34.267Z,7.21
2019-01-17T10:40:35.487Z,7.25
2019-01-17T10:41:34.302Z,7.23
2019-01-17T10:42:34.316Z,7.17
2019-01-17T10:43:34.332Z,7.17
2019-01-17T10:44:34.345Z,7.07
2019-01-17T10:45:34.365Z,7.15
2019-01-17T10:46:34.377Z,7.11
2019-01-17T10:47:34.394Z,7.10
2019-01-17T10:48:34.412Z,7.10
2019-01-17T10:49:34.429Z,7.06
2019-01-17T10:50:34.442Z,7.10
2019-01-17T10:51:34.459Z,6.93
2019-01-17T10:52:34.472Z,6.95
2019-01-17T10:53:34.490Z,6.99
2019-01-17T10:54:34.504Z,6.93
2019-01-17T10:55:34.523Z,6.81
2019-01-17T10:56:41.026Z,6.79
2019-01-17T10:57:34.551Z,6.81
2019-01-17T10:58:34.566Z,6.77
2019-01-17T10:59:34.586Z,6.51
2019-01-17T11:00:34.597Z,6.49
2019-01-17T11:01:34.614Z,6.28
2019-01-17T11:02:34.633Z,6.30
2019-01-17T11:03:34.648Z,6.30
2019-01-17T11:04:34.662Z,6.26
2019-01-17T11:05:34.678Z,6.30
2019-01-17T11:06:34.690Z,6.20
2019-01-17T11:07:34.706Z,6.20
2019-01-17T11:08:34.721Z,6.05
2019-01-17T11:09:34.738Z,5.97
2019-01-17T11:10:34.754Z,5.99
2019-01-17T11:11:34.773Z,5.94
2019-01-17T11:12:34.782Z,5.87
2019-01-17T11:13:34.803Z,5.89
2019-01-17T11:14:34.815Z,5.87
2019-01-17T11:15:34.830Z,5.83
2019-01-17T11:16:34.843Z,5.91
2019-01-17T11:17:34.864Z,5.90
2019-01-17T11:18:34.876Z,5.79
2019-01-17T11:19:34.891Z,5.73
2019-01-17T11:20:34.904Z,5.76
2019-01-17T11:21:34.919Z,5.84
2019-01-17T11:22:34.935Z,5.80
2019-01-17T11:23:35.201Z,5.82
2019-01-17T11:24:34.963Z,5.86
2019-01-17T11:25:34.982Z,5.65
2019-01-17T11:26:34.996Z,5.68
2019-01-17T11:27:35.010Z,5.80
2019-01-17T11:28:35.025Z,5.69
2019-01-17T11:29:35.038Z,5.59
2019-01-17T11:30:35.055Z,5.53
2019-01-17T11:31:35.067Z,5.68
2019-01-17T11:32:35.085Z,5.54
2019-01-17T11:33:35.102Z,5.56
2019-01-17T11:34:35.113Z,5.62
2019-01-17T11:35:35.131Z,5.54
2019-01-17T11:36:35.143Z,5.53
2019-01-17T11:37:35.156Z,5.66
2019-01-17T11:38:35.524Z,5.44
2019-01-17T11:39:35.188Z,5.48
2019-01-17T11:40:35.201Z,5.50
2019-01-17T11:41:35.221Z,5.33
2019-01-17T11:42:35.230Z,5.46
2019-01-17T11:43:35.249Z,5.32
2019-01-17T11:44:35.266Z,5.46
2019-01-17T11:45:35.275Z,5.33
2019-01-17T11:46:35.294Z,5.18
2019-01-17T11:47:35.305Z,5.20
2019-01-17T11:48:35.319Z,5.28
2019-01-17T11:49:35.336Z,5.29
2019-01-17T11:50:35.352Z,5.17
2019-01-17T11:51:35.364Z,5.07
2019-01-17T11:52:35.381Z,5.05
2019-01-17T11:53:35.398Z,4.93
2019-01-17T11:54:35.407Z,4.97
2019-01-17T11:55:35.423Z,5.02
2019-01-17T11:56:40.890Z,4.92
2019-01-17T11:57:35.754Z,4.82
2019-01-17T11:58:35.469Z,4.77
2019-01-17T11:59:35.483Z,4.80
2019-01-17T12:00:35.495Z,4.82
2019-01-17T12:01:35.512Z,4.70
2019-01-17T12:02:39.095Z,4.75
2019-01-17T12:03:35.539Z,4.66
2019-01-17T12:04:35.557Z,4.74
2019-01-17T12:05:35.569Z,4.82
2019-01-17T12:06:35.582Z,4.66
2019-01-17T12:07:35.597Z,4.67
2019-01-17T12:08:35.611Z,4.71
2019-01-17T12:09:35.657Z,4.73
2019-01-17T12:10:35.646Z,4.77
2019-01-17T12:11:35.657Z,4.77
2019-01-17T12:12:35.669Z,4.60
2019-01-17T12:13:35.683Z,4.62
2019-01-17T12:14:35.748Z,4.48
2019-01-17T12:15:35.715Z,4.49
2019-01-17T12:16:35.727Z,4.32
2019-01-17T12:17:35.741Z,4.40
2019-01-17T12:18:35.756Z,4.26
2019-01-17T12:19:35.771Z,4.32
2019-01-17T12:20:35.787Z,4.26
2019-01-17T12:21:35.802Z,4.35
2019-01-17T12:22:35.812Z,4.44
2019-01-17T12:23:35.829Z,4.37
2019-01-17T12:24:35.844Z,4.20
2019-01-17T12:25:35.856Z,4.35
2019-01-17T12:26:35.872Z,4.32
2019-01-17T12:27:42.363Z,4.41
2019-01-17T12:28:35.903Z,4.42
2019-01-17T12:29:36.315Z,4.28
2019-01-17T12:30:35.928Z,4.22
2019-01-17T12:31:35.948Z,4.24
2019-01-17T12:32:35.958Z,4.22
2019-01-17T12:33:35.976Z,4.24
2019-01-17T12:34:36.023Z,4.23
2019-01-17T12:35:36.001Z,4.28
2019-01-17T12:36:36.018Z,4.34
2019-01-17T12:37:36.033Z,4.30
2019-01-17T12:38:36.046Z,4.37
2019-01-17T12:39:36.063Z,4.41
2019-01-17T12:40:36.077Z,4.38
2019-01-17T12:41:36.091Z,4.34
2019-01-17T12:42:36.103Z,4.35
2019-01-17T12:43:36.117Z,4.41
2019-01-17T12:44:36.131Z,4.44
2019-01-17T12:45:36.147Z,4.55
2019-01-17T12:46:36.161Z,4.53
2019-01-17T12:47:36.177Z,4.58
2019-01-17T12:48:36.193Z,4.66
2019-01-17T12:49:36.204Z,4.37
2019-01-17T12:50:36.221Z,4.48
2019-01-17T12:51:36.235Z,4.52
2019-01-17T12:52:36.247Z,4.68
2019-01-17T12:53:36.264Z,4.62
2019-01-17T12:54:36.276Z,4.55
2019-01-17T12:55:36.291Z,4.49
2019-01-17T12:56:36.308Z,4.49
2019-01-17T12:57:36.323Z,4.44
2019-01-17T12:58:36.336Z,4.56
2019-01-17T12:59:36.351Z,4.55
2019-01-17T13:00:36.366Z,4.67
2019-01-17T13:01:36.381Z,4.68
2019-01-17T13:02:36.392Z,4.73
2019-01-17T13:03:36.409Z,4.67
2019-01-17T13:04:36.424Z,4.53
2019-01-17T13:05:36.440Z,4.63
2019-01-17T13:06:36.453Z,4.66
2019-01-17T13:07:36.465Z,4.53
2019-01-17T13:08:36.481Z,4.48
2019-01-17T13:09:36.496Z,4.60
2019-01-17T13:10:36.509Z,4.66
2019-01-17T13:11:36.527Z,4.66
2019-01-17T13:12:36.541Z,4.60
2019-01-17T13:13:36.553Z,4.82
2019-01-17T13:14:36.572Z,4.80
2019-01-17T13:15:36.582Z,4.74
2019-01-17T13:16:36.600Z,4.71
2019-01-17T13:17:36.613Z,4.68
2019-01-17T13:18:36.626Z,4.66